createdAt,value
2018-12-07T00:03:01.983Z,-0.71
2018-12-07T00:07:47.076Z,-0.49
2018-12-07T00:12:32.293Z,0.15
2018-12-07T00:17:17.026Z,0.37
2018-12-07T00:22:03.579Z,0.55
2018-12-07T00:26:48.374Z,0.32
2018-12-07T00:31:34.802Z,0.37
2018-12-07T00:36:19.731Z,0.32
2018-12-07T00:41:05.505Z,-0.11
2018-12-07T00:45:51.172Z,0.33
2018-12-07T00:50:36.278Z,0.36
2018-12-07T00:55:32.664Z,-0.06
2018-12-07T01:00:18.100Z,0.47
2018-12-07T01:05:02.972Z,0.41
2018-12-07T01:09:51.213Z,-0.42
2018-12-07T01:14:36.117Z,-0.71
2018-12-07T01:19:21.962Z,-0.97
2018-12-07T01:24:07.064Z,-1.02
2018-12-07T01:28:52.857Z,-0.55
2018-12-07T01:33:38.088Z,-0.30
2018-12-07T01:38:22.500Z,-0.86
2018-12-07T01:43:08.505Z,-0.76
2018-12-07T01:47:55.008Z,0.03
2018-12-07T01:52:39.812Z,0.27
2018-12-07T01:57:25.208Z,0.26
2018-12-07T02:02:10.026Z,-0.94
2018-12-07T02:12:08.825Z,-0.99
2018-12-07T02:16:53.989Z,-0.84
2018-12-07T02:21:39.877Z,-0.66
2018-12-07T02:26:25.025Z,-0.48
2018-12-07T02:31:09.822Z,-0.69
2018-12-07T02:35:55.508Z,-0.66
2018-12-07T02:40:41.365Z,-0.83
2018-12-07T02:45:26.145Z,-1.10
2018-12-07T02:50:11.488Z,-0.62
2018-12-07T02:54:56.260Z,-0.99
2018-12-07T02:59:43.497Z,-1.00
2018-12-07T03:04:28.332Z,-0.93
2018-12-07T03:09:17.179Z,-1.05
2018-12-07T03:14:02.785Z,-1.12
2018-12-07T03:18:47.355Z,-0.86
2018-12-07T03:23:32.717Z,-0.96
2018-12-07T03:28:17.696Z,-0.93
2018-12-07T03:33:02.873Z,-0.89
2018-12-07T03:37:48.572Z,-0.93
2018-12-07T03:42:34.541Z,-1.17
2018-12-07T03:47:19.865Z,-0.78
2018-12-07T03:52:04.303Z,-0.75
2018-12-07T03:56:50.705Z,-0.65
2018-12-07T04:01:39.388Z,-0.36
2018-12-07T04:06:24.597Z,-1.09
2018-12-07T04:11:10.515Z,-0.76
2018-12-07T04:15:55.659Z,-0.40
2018-12-07T04:20:40.055Z,-0.30
2018-12-07T04:25:26.490Z,-0.63
2018-12-07T04:30:28.500Z,-0.71
2018-12-07T04:35:13.453Z,-0.25
2018-12-07T04:39:59.795Z,-0.45
2018-12-07T04:44:46.185Z,-1.02
2018-12-07T04:49:31.504Z,-0.57
2018-12-07T04:54:16.458Z,0.18
2018-12-07T04:59:03.236Z,0.04
2018-12-07T05:03:48.864Z,0.35
2018-12-07T05:08:33.771Z,0.02
2018-12-07T05:13:19.167Z,0.07
2018-12-07T05:18:04.129Z,0.28
2018-12-07T05:22:49.400Z,-0.52
2018-12-07T05:27:34.281Z,-0.66
2018-12-07T05:32:19.554Z,-0.19
2018-12-07T05:37:07.962Z,0.10
2018-12-07T05:41:54.738Z,-1.04
2018-12-07T05:46:40.078Z,-0.77
2018-12-07T05:51:24.756Z,-0.58
2018-12-07T05:56:10.239Z,0.01
2018-12-07T06:00:57.780Z,-0.05
2018-12-07T06:05:42.695Z,-0.42
2018-12-07T06:10:28.154Z,0.01
2018-12-07T06:15:12.461Z,0.54
2018-12-07T06:19:58.220Z,-0.09
2018-12-07T06:24:43.365Z,-0.40
2018-12-07T06:29:29.647Z,-0.50
2018-12-07T06:34:15.306Z,0.10
2018-12-07T06:39:00.256Z,1.21
2018-12-07T06:43:45.594Z,1.45
2018-12-07T06:48:31.895Z,0.96
2018-12-07T06:53:17.334Z,0.51
2018-12-07T06:58:03.542Z,0.26
2018-12-07T07:02:49.952Z,0.70
2018-12-07T07:07:35.501Z,1.92
2018-12-07T07:12:20.390Z,1.01
2018-12-07T07:17:06.064Z,1.53
2018-12-07T07:21:50.319Z,2.75
2018-12-07T07:26:35.962Z,3.22
2018-12-07T07:31:21.295Z,2.26
2018-12-07T07:36:06.116Z,2.77
2018-12-07T07:40:51.722Z,3.96
2018-12-07T07:45:38.398Z,4.55
2018-12-07T07:50:29.604Z,4.94
2018-12-07T07:55:18.100Z,5.30
2018-12-07T08:00:04.610Z,5.09
2018-12-07T08:04:49.856Z,3.70
2018-12-07T08:09:35.719Z,2.89
2018-12-07T08:14:21.333Z,3.26
2018-12-07T08:19:06.605Z,4.33
2018-12-07T08:23:51.516Z,5.90
2018-12-07T08:28:37.138Z,6.83
2018-12-07T08:33:21.297Z,6.80
2018-12-07T08:38:11.398Z,7.29
2018-12-07T08:42:56.569Z,4.88
2018-12-07T08:47:47.933Z,4.07
2018-12-07T08:52:33.097Z,4.20
2018-12-07T08:57:17.528Z,5.61
2018-12-07T09:02:03.148Z,3.78
2018-12-07T09:06:48.941Z,5.12
2018-12-07T09:11:34.847Z,6.55
2018-12-07T09:16:19.377Z,6.92
2018-12-07T09:21:08.862Z,7.61
2018-12-07T09:25:54.198Z,8.30
2018-12-07T09:30:38.353Z,8.73
2018-12-07T09:35:23.155Z,9.21
2018-12-07T09:40:08.834Z,9.88
2018-12-07T09:44:52.967Z,9.08
2018-12-07T09:49:39.968Z,10.10
2018-12-07T09:54:25.112Z,6.27
2018-12-07T09:59:09.842Z,5.83
2018-12-07T10:03:56.704Z,6.22
2018-12-07T10:08:40.921Z,6.88
2018-12-07T10:13:26.134Z,6.43
2018-12-07T10:18:11.622Z,6.49
2018-12-07T10:22:55.933Z,7.46
2018-12-07T10:27:41.723Z,7.99
2018-12-07T10:32:27.021Z,8.35
2018-12-07T10:37:11.608Z,8.15
2018-12-07T10:41:57.288Z,8.01
2018-12-07T10:46:41.969Z,8.87
2018-12-07T10:51:28.437Z,7.27
2018-12-07T10:56:24.777Z,7.72
2018-12-07T11:01:15.589Z,8.16
2018-12-07T11:06:05.712Z,8.23
2018-12-07T11:10:55.693Z,8.53
2018-12-07T11:15:45.224Z,7.67
2018-12-07T11:20:35.968Z,7.55
2018-12-07T11:25:27.696Z,7.49
2018-12-07T11:30:17.389Z,7.80
2018-12-07T11:35:08.967Z,7.65
2018-12-07T11:39:53.316Z,8.30
2018-12-07T11:44:37.977Z,7.73
2018-12-07T11:49:30.916Z,7.76
2018-12-07T11:54:20.342Z,7.86
2018-12-07T11:59:20.173Z,8.04
2018-12-07T12:04:05.429Z,7.76
2018-12-07T12:08:50.656Z,7.81
2018-12-07T12:13:36.741Z,7.69
2018-12-07T12:18:22.666Z,7.56
2018-12-07T12:23:13.081Z,7.19
2018-12-07T12:28:00.411Z,7.55
2018-12-07T12:32:54.609Z,7.09
2018-12-07T12:37:39.117Z,6.75
2018-12-07T12:42:25.131Z,6.66
2018-12-07T12:47:09.596Z,6.54
2018-12-07T12:52:13.785Z,6.71
2018-12-07T12:57:00.377Z,6.75
2018-12-07T13:01:46.098Z,6.97
2018-12-07T13:06:31.188Z,6.50
2018-12-07T13:11:22.322Z,6.61
2018-12-07T13:16:14.091Z,7.44
2018-12-07T13:20:58.562Z,6.30
2018-12-07T13:25:50.212Z,6.85
2018-12-07T13:30:35.803Z,6.78
2018-12-07T13:35:22.312Z,6.49
2018-12-07T13:40:07.762Z,6.43
2018-12-07T13:44:58.071Z,7.25
2018-12-07T13:49:43.647Z,7.15
2018-12-07T13:54:29.980Z,6.14
2018-12-07T13:59:16.302Z,6.27
2018-12-07T14:04:00.750Z,7.25
2018-12-07T14:08:45.755Z,9.14
2018-12-07T14:13:31.583Z,9.08
2018-12-07T14:18:16.507Z,8.28
2018-12-07T14:23:02.700Z,7.89
2018-12-07T14:27:47.913Z,5.80
2018-12-07T14:32:32.210Z,4.82
2018-12-07T14:37:19.085Z,4.51
2018-12-07T14:42:04.143Z,5.14
2018-12-07T14:46:50.844Z,5.69
2018-12-07T14:51:36.460Z,5.05
2018-12-07T14:56:21.645Z,4.89
2018-12-07T15:01:06.643Z,5.21
2018-12-07T15:05:52.337Z,5.28
2018-12-07T15:10:37.172Z,5.29
2018-12-07T15:15:22.631Z,4.94
2018-12-07T15:20:09.159Z,5.23
2018-12-07T15:24:55.119Z,5.10
2018-12-07T15:29:40.222Z,5.26
2018-12-07T15:34:35.280Z,5.15
2018-12-07T15:39:24.268Z,4.94
2018-12-07T15:44:09.289Z,4.92
2018-12-07T15:48:56.891Z,4.82
2018-12-07T15:53:42.115Z,5.05
2018-12-07T15:58:31.187Z,4.98
2018-12-07T16:03:17.029Z,4.28
2018-12-07T16:08:02.098Z,4.44
2018-12-07T16:12:47.950Z,3.69
2018-12-07T16:17:32.352Z,3.87
2018-12-07T16:22:17.239Z,3.97
2018-12-07T16:27:05.037Z,3.94
2018-12-07T16:31:51.521Z,4.15
2018-12-07T16:36:37.317Z,4.52
2018-12-07T16:41:22.987Z,4.94
2018-12-07T16:46:07.668Z,4.88
2018-12-07T16:50:53.956Z,4.65
2018-12-07T16:55:38.544Z,4.00
2018-12-07T17:00:23.117Z,4.76
2018-12-07T17:05:10.614Z,4.70
2018-12-07T17:09:56.541Z,4.25
2018-12-07T17:14:40.835Z,3.77
2018-12-07T17:19:25.921Z,4.27
2018-12-07T17:24:10.227Z,4.47
2018-12-07T17:28:56.802Z,3.97
2018-12-07T17:33:42.672Z,4.25
2018-12-07T17:38:28.160Z,4.13
2018-12-07T17:43:13.767Z,3.50
2018-12-07T17:48:00.518Z,3.85
2018-12-07T17:52:45.882Z,4.03
2018-12-07T17:57:33.784Z,4.34
2018-12-07T18:02:19.898Z,3.57
2018-12-07T18:07:04.552Z,3.63
2018-12-07T18:11:51.788Z,2.78
2018-12-07T18:16:37.507Z,2.44
2018-12-07T18:21:23.149Z,2.88
2018-12-07T18:26:09.046Z,3.13
2018-12-07T18:30:56.322Z,2.91
2018-12-07T18:35:41.181Z,2.93
2018-12-07T18:40:27.467Z,3.88
2018-12-07T18:45:13.013Z,3.12
2018-12-07T18:49:59.923Z,3.01
2018-12-07T18:54:45.224Z,3.29
2018-12-07T18:59:31.154Z,3.28
2018-12-07T19:04:15.907Z,2.86
2018-12-07T19:09:01.000Z,3.67
2018-12-07T19:13:46.612Z,3.23
2018-12-07T19:18:32.527Z,3.30
2018-12-07T19:23:17.639Z,2.70
2018-12-07T19:28:03.175Z,3.71
2018-12-07T19:32:54.706Z,4.18
2018-12-07T19:37:42.585Z,4.33
2018-12-07T19:42:28.274Z,4.59
2018-12-07T19:47:16.705Z,4.74
2018-12-07T19:52:03.476Z,4.74
2018-12-07T19:56:48.499Z,4.90
2018-12-07T20:01:33.886Z,4.98
2018-12-07T20:06:23.787Z,4.96
2018-12-07T20:11:12.338Z,4.87
2018-12-07T20:15:58.158Z,4.19
2018-12-07T20:20:47.975Z,3.79
2018-12-07T20:25:40.381Z,4.07
2018-12-07T20:30:27.470Z,4.00
2018-12-07T20:35:15.923Z,4.77
2018-12-07T20:40:00.274Z,3.74
2018-12-07T20:44:47.419Z,3.80
2018-12-07T20:49:32.780Z,3.94
2018-12-07T20:54:17.148Z,3.48
2018-12-07T20:59:04.688Z,3.72
2018-12-07T21:04:59.183Z,4.11
2018-12-07T21:09:44.178Z,4.06
2018-12-07T21:14:36.843Z,4.56
2018-12-07T21:19:22.593Z,4.94
2018-12-07T21:24:06.831Z,4.95
2018-12-07T21:28:52.808Z,4.72
2018-12-07T21:33:49.274Z,4.68
2018-12-07T21:38:34.663Z,4.45
2018-12-07T21:43:20.601Z,4.11
2018-12-07T21:48:27.328Z,3.09
2018-12-07T21:53:12.094Z,3.92
2018-12-07T21:58:00.748Z,3.50
2018-12-07T22:02:46.384Z,4.13
2018-12-07T22:07:31.805Z,3.98
2018-12-07T22:12:17.563Z,4.00
2018-12-07T22:17:06.633Z,2.85
2018-12-07T22:21:52.092Z,2.53
2018-12-07T22:26:39.941Z,3.15
2018-12-07T22:31:25.888Z,3.77
2018-12-07T22:36:12.787Z,3.85
2018-12-07T22:40:58.547Z,4.27
2018-12-07T22:45:45.297Z,4.45
2018-12-07T22:50:29.865Z,3.86
2018-12-07T22:55:14.441Z,4.03
2018-12-07T23:00:00.277Z,3.93
2018-12-07T23:04:46.351Z,3.60
2018-12-07T23:09:32.066Z,3.73
2018-12-07T23:14:20.814Z,3.91
2018-12-07T23:19:06.284Z,4.02
2018-12-07T23:28:49.677Z,4.47
2018-12-07T23:33:35.244Z,3.80
2018-12-07T23:38:19.955Z,3.55
2018-12-07T23:43:08.891Z,3.37
2018-12-07T23:47:54.879Z,3.21
2018-12-07T23:52:40.516Z,3.72
2018-12-07T23:57:26.819Z,4.30
